Time;durP1;ratioP1;P1;durP2;ratioP2;P2;SDS_P1;SDS_P2;PMS_P1;PMS_P2;Temp;Humidity;BMP_temperature;BMP_pressure;BME280_temperature;BME280_humidity;BME280_pressure;Samples;Min_cycle;Max_cycle;Signal;HPM_P1;HPM_P2
2023/03/15 00:01:37;;;;;;;9.98;7.32;;;;;;;4.03;100.00;99791.75;5051990;28;20029;-72
2023/03/15 00:04:04;;;;;;;12.23;7.55;;;;;;;3.77;100.00;99801.91;5053364;28;20032;-72
2023/03/15 00:06:33;;;;;;;13.23;7.95;;;;;;;3.61;100.00;99751.69;5053512;28;20036;-72
2023/03/15 00:09:00;;;;;;;12.43;7.80;;;;;;;3.51;100.00;99700.66;5053524;28;20037;-72
2023/03/15 00:11:29;;;;;;;13.85;8.05;;;;;;;3.63;100.00;99750.00;5053522;28;20526;-72
2023/03/15 00:13:58;;;;;;;13.93;8.27;;;;;;;3.83;100.00;99796.00;5053449;28;20067;-71
2023/03/15 00:16:25;;;;;;;15.07;8.77;;;;;;;3.45;100.00;99710.72;5051734;28;20033;-72
2023/03/15 00:18:54;;;;;;;16.02;8.40;;;;;;;3.70;100.00;99794.41;5053184;28;20029;-72
2023/03/15 00:21:20;;;;;;;10.63;7.97;;;;;;;3.95;100.00;99744.00;5052911;28;20025;-72
2023/03/15 00:23:45;;;;;;;13.60;7.68;;;;;;;3.24;100.00;99725.88;5053254;28;20051;-72
2023/03/15 00:26:11;;;;;;;14.38;7.60;;;;;;;3.62;100.00;99786.03;5053233;28;20111;-72
2023/03/15 00:28:38;;;;;;;10.90;7.40;;;;;;;3.77;100.00;99788.50;5051640;28;20029;-75
2023/03/15 00:31:16;;;;;;;14.90;7.63;;;;;;;3.63;100.00;99783.53;5051691;28;20036;-72
2023/03/15 00:33:42;;;;;;;11.98;7.30;;;;;;;3.37;100.00;99733.34;5050657;28;20041;-73
2023/03/15 00:36:09;;;;;;;11.73;7.50;;;;;;;3.69;100.00;99775.97;5051784;28;20037;-72
2023/03/15 00:38:36;;;;;;;13.48;7.53;;;;;;;3.27;100.00;99754.31;5053191;28;20052;-72
2023/03/15 00:41:11;;;;;;;9.50;7.18;;;;;;;3.46;100.00;99760.97;5053057;28;20420;-72
2023/03/15 00:43:37;;;;;;;12.60;7.35;;;;;;;3.01;100.00;99692.47;5052848;28;20068;-72
2023/03/15 00:46:03;;;;;;;12.23;7.10;;;;;;;3.20;100.00;99749.31;5052462;28;20056;-73
2023/03/15 00:48:29;;;;;;;10.68;6.97;;;;;;;3.26;100.00;99691.53;5052812;28;20127;-73
2023/03/15 00:51:13;;;;;;;9.82;6.53;;;;;;;3.42;100.00;99743.41;5052185;28;20060;-72
2023/03/15 00:53:41;;;;;;;11.80;6.22;;;;;;;2.94;100.00;99696.66;5051086;28;20036;-72
2023/03/15 00:56:09;;;;;;;10.15;6.25;;;;;;;3.20;100.00;99669.81;5052069;28;20098;-72
2023/03/15 00:58:35;;;;;;;9.52;6.63;;;;;;;3.66;100.00;99722.38;5052366;28;20025;-71
2023/03/15 01:01:07;;;;;;;10.95;7.18;;;;;;;3.08;100.00;99720.06;5052307;28;20506;-72
2023/03/15 01:03:32;;;;;;;10.30;7.38;;;;;;;3.29;100.00;99711.63;5051130;28;20025;-72
2023/03/15 01:05:58;;;;;;;11.75;7.35;;;;;;;3.37;100.00;99710.75;5051518;28;20033;-72
2023/03/15 01:08:24;;;;;;;12.43;7.50;;;;;;;3.27;100.00;99718.31;5051898;28;20411;-72
2023/03/15 01:10:49;;;;;;;9.88;7.45;;;;;;;3.36;100.00;99666.41;5050708;28;20029;-73
2023/03/15 01:13:15;;;;;;;11.63;7.55;;;;;;;3.40;100.00;99658.00;5050453;28;20059;-72
2023/03/15 01:15:45;;;;;;;9.82;7.07;;;;;;;3.39;100.00;99635.38;5051754;28;20032;-73
2023/03/15 01:18:10;;;;;;;12.07;7.72;;;;;;;3.28;100.00;99667.25;5050916;28;20029;-72
2023/03/15 01:20:35;;;;;;;11.77;7.75;;;;;;;3.33;100.00;99700.72;5051467;28;20033;-71
2023/03/15 01:23:01;;;;;;;12.70;7.82;;;;;;;3.11;100.00;99642.19;5052067;28;20037;-71
2023/03/15 01:25:26;;;;;;;11.02;8.30;;;;;;;3.43;100.00;99688.13;5049893;28;20131;-71
2023/03/15 01:27:52;;;;;;;12.05;7.03;;;;;;;3.25;100.00;99680.66;5051862;28;20044;-71
2023/03/15 01:30:17;;;;;;;11.45;7.45;;;;;;;2.75;100.00;99664.91;5051746;28;20033;-72
2023/03/15 01:32:42;;;;;;;11.35;6.95;;;;;;;2.77;100.00;99677.44;5050373;28;20029;-73
2023/03/15 01:35:08;;;;;;;11.00;6.80;;;;;;;2.85;100.00;99638.97;5051748;28;20087;-72
2023/03/15 01:37:34;;;;;;;11.25;6.97;;;;;;;2.51;100.00;99582.19;5051491;28;20484;-72
2023/03/15 01:39:59;;;;;;;10.77;6.82;;;;;;;2.39;100.00;99627.34;5051420;28;20415;-72
2023/03/15 01:42:24;;;;;;;9.88;7.30;;;;;;;2.40;100.00;99614.78;5051498;28;20040;-72
2023/03/15 01:44:56;;;;;;;12.05;8.13;;;;;;;2.16;100.00;99617.31;5050732;28;20110;-72
2023/03/15 01:47:24;;;;;;;11.20;7.75;;;;;;;2.44;100.00;99664.09;5051371;28;20503;-72
2023/03/15 01:49:57;;;;;;;11.35;7.63;;;;;;;2.93;100.00;99657.31;5051950;28;20037;-72
2023/03/15 01:52:30;;;;;;;14.70;8.20;;;;;;;2.69;100.00;99647.38;5051517;28;20080;-72
2023/03/15 01:55:01;;;;;;;11.07;7.53;;;;;;;2.10;100.00;99631.53;5051256;28;20025;-73
2023/03/15 01:57:35;;;;;;;11.93;7.55;;;;;;;2.23;100.00;99591.41;5051322;28;20395;-72
2023/03/15 02:00:15;;;;;;;11.55;7.55;;;;;;;2.57;100.00;99662.44;5051413;28;20112;-71
2023/03/15 02:03:06;;;;;;;10.50;7.13;;;;;;;2.33;100.00;99599.75;5051363;28;20029;-71
2023/03/15 02:05:44;;;;;;;11.10;7.57;;;;;;;2.02;100.00;99603.13;5049968;28;20110;-72
2023/03/15 02:08:12;;;;;;;11.95;8.25;;;;;;;2.42;100.00;99664.94;5047883;28;20067;-71
2023/03/15 02:10:43;;;;;;;11.50;7.35;;;;;;;2.83;100.00;99658.22;5050744;28;20110;-72
2023/03/15 02:13:11;;;;;;;11.00;7.47;;;;;;;2.34;100.00;99611.44;5050196;28;20036;-70
2023/03/15 02:15:36;;;;;;;11.57;7.95;;;;;;;2.93;100.00;99642.25;5051605;28;20037;-72
2023/03/15 02:18:02;;;;;;;10.25;7.18;;;;;;;2.14;100.00;99561.31;5049471;28;20091;-72
2023/03/15 02:20:33;;;;;;;12.48;7.50;;;;;;;2.19;100.00;99649.06;5049147;28;20055;-71
2023/03/15 02:23:11;;;;;;;11.38;7.65;;;;;;;2.41;100.00;99586.38;5051180;28;20119;-70
2023/03/15 02:25:55;;;;;;;12.93;8.23;;;;;;;2.67;100.00;99654.06;5050129;28;20045;-72
2023/03/15 02:28:21;;;;;;;11.35;8.07;;;;;;;2.37;100.00;99634.88;5051002;28;20033;-71
2023/03/15 02:30:48;;;;;;;14.65;7.72;;;;;;;2.20;100.00;99618.16;5051279;28;20457;-73
2023/03/15 02:33:40;;;;;;;12.00;7.50;;;;;;;1.86;100.00;99646.53;5049922;28;20119;-72
2023/03/15 02:36:28;;;;;;;11.50;7.80;;;;;;;2.22;100.00;99661.63;5051012;28;20486;-71
2023/03/15 02:38:55;;;;;;;13.13;8.10;;;;;;;1.88;100.00;99664.91;5050925;28;20025;-72
2023/03/15 02:41:26;;;;;;;11.80;8.43;;;;;;;2.08;100.00;99663.28;5051241;28;20055;-72
2023/03/15 02:43:55;;;;;;;12.73;8.73;;;;;;;1.89;100.00;99618.97;5050740;28;20395;-73
2023/03/15 02:46:22;;;;;;;14.70;9.50;;;;;;;2.11;100.00;99633.19;5051124;28;20139;-72
2023/03/15 02:48:50;;;;;;;14.32;9.90;;;;;;;2.31;100.00;99666.63;5051151;28;20124;-73
2023/03/15 02:51:19;;;;;;;17.10;10.00;;;;;;;2.05;100.00;99670.78;5051026;28;20068;-72
2023/03/15 02:53:45;;;;;;;14.55;9.50;;;;;;;2.24;100.00;99667.47;5049858;28;20041;-72
2023/03/15 02:56:10;;;;;;;13.68;8.70;;;;;;;2.27;100.00;99634.88;5050806;28;20041;-71
2023/03/15 02:58:36;;;;;;;14.45;8.40;;;;;;;2.31;100.00;99659.94;5054270;28;20040;-71
2023/03/15 03:01:01;;;;;;;12.52;8.35;;;;;;;2.00;100.00;99619.84;5054816;28;20048;-71
2023/03/15 03:03:26;;;;;;;12.60;8.25;;;;;;;1.74;100.00;99628.13;5054257;28;20498;-71
2023/03/15 03:05:52;;;;;;;10.68;7.97;;;;;;;1.93;100.00;99679.13;5053091;28;20033;-72
2023/03/15 03:08:17;;;;;;;11.60;8.02;;;;;;;1.81;100.00;99633.16;5054285;28;20037;-71
2023/03/15 03:10:44;;;;;;;11.18;7.75;;;;;;;1.77;100.00;99658.22;5054573;28;20029;-72
2023/03/15 03:13:20;;;;;;;11.40;8.00;;;;;;;2.09;100.00;99664.94;5055078;28;20082;-72
2023/03/15 03:15:48;;;;;;;15.05;8.63;;;;;;;1.65;100.00;99630.66;5054445;28;20037;-72
2023/03/15 03:18:13;;;;;;;12.27;8.35;;;;;;;1.54;100.00;99634.81;5054249;28;20041;-71
2023/03/15 03:20:39;;;;;;;15.48;8.38;;;;;;;1.78;100.00;99621.50;5054256;28;20458;-72
2023/03/15 03:23:05;;;;;;;12.38;8.35;;;;;;;2.29;100.00;99678.31;5054255;28;20106;-73
2023/03/15 03:25:31;;;;;;;15.27;8.88;;;;;;;1.93;100.00;99615.63;5051440;28;20415;-73
2023/03/15 03:27:57;;;;;;;15.50;8.93;;;;;;;2.38;100.00;99670.78;5054728;28;20033;-72
2023/03/15 03:30:23;;;;;;;13.55;9.00;;;;;;;2.40;100.00;99664.94;5054548;28;20036;-73
2023/03/15 03:32:49;;;;;;;14.43;10.48;;;;;;;1.93;100.00;99596.44;5033842;28;20384;-72
2023/03/15 03:35:15;;;;;;;16.05;10.65;;;;;;;2.37;100.00;99659.94;5052473;28;20029;-73
2023/03/15 03:37:40;;;;;;;17.15;9.80;;;;;;;2.39;100.00;99605.59;5053365;28;20511;-72
2023/03/15 03:40:07;;;;;;;14.60;10.43;;;;;;;2.18;100.00;99569.69;5054095;28;20025;-72
2023/03/15 03:42:36;;;;;;;15.07;10.50;;;;;;;2.61;100.00;99657.38;5053175;28;20446;-72
2023/03/15 03:45:01;;;;;;;14.85;9.65;;;;;;;3.04;100.00;99664.84;5053850;28;20049;-73
2023/03/15 03:47:27;;;;;;;14.13;9.80;;;;;;;2.88;100.00;99651.50;5053107;28;20080;-73
2023/03/15 03:49:52;;;;;;;16.45;10.25;;;;;;;2.84;100.00;99671.56;5085754;28;20053;-75
2023/03/15 03:52:17;;;;;;;13.95;10.38;;;;;;;2.40;100.00;99619.81;5052193;28;20052;-72
2023/03/15 03:54:43;;;;;;;13.95;10.00;;;;;;;2.90;100.00;99652.31;5052350;28;20029;-73
2023/03/15 03:57:09;;;;;;;15.90;9.27;;;;;;;2.82;100.00;99655.69;5052469;28;20036;-72
2023/03/15 03:59:39;;;;;;;13.18;9.02;;;;;;;3.19;100.00;99664.78;5052628;28;20078;-71
2023/03/15 04:02:04;;;;;;;15.07;9.88;;;;;;;2.81;100.00;99602.16;5052235;28;20102;-72
2023/03/15 04:04:30;;;;;;;17.00;9.18;;;;;;;3.16;100.00;99657.25;5053301;28;20033;-72
2023/03/15 04:06:55;;;;;;;18.00;9.85;;;;;;;2.92;100.00;99602.97;5051633;28;20029;-73
2023/03/15 04:09:23;;;;;;;15.27;9.50;;;;;;;3.09;100.00;99648.91;5051423;28;20029;-72
2023/03/15 04:11:49;;;;;;;16.65;12.32;;;;;;;2.67;100.00;99615.59;5051850;28;20041;-72
2023/03/15 04:14:14;;;;;;;18.23;11.13;;;;;;;2.80;100.00;99658.19;5053219;28;20029;-72
2023/03/15 04:16:40;;;;;;;16.77;11.25;;;;;;;2.53;100.00;99620.63;5051255;28;20045;-71
2023/03/15 04:19:06;;;;;;;19.25;11.57;;;;;;;2.36;100.00;99609.78;5051714;28;20033;-73
2023/03/15 04:21:32;;;;;;;15.52;10.40;;;;;;;2.83;100.00;99670.75;5051250;28;20044;-72
2023/03/15 04:23:59;;;;;;;15.63;10.82;;;;;;;2.67;100.00;99623.09;5047524;28;20112;-72
2023/03/15 04:26:25;;;;;;;15.15;9.90;;;;;;;2.56;100.00;99671.63;5043307;28;20123;-75
2023/03/15 04:28:55;;;;;;;14.45;9.98;;;;;;;2.17;100.00;99620.66;5053613;28;20029;-71
2023/03/15 04:31:25;;;;;;;15.00;9.80;;;;;;;2.20;100.00;99620.66;5051260;28;20535;-72
2023/03/15 04:33:55;;;;;;;16.65;10.40;;;;;;;2.43;100.00;99666.63;5050844;28;20059;-73
2023/03/15 04:36:21;;;;;;;16.02;11.18;;;;;;;2.46;100.00;99667.44;5051736;28;20036;-73
2023/03/15 04:38:48;;;;;;;20.98;11.60;;;;;;;2.55;100.00;99656.59;5052417;28;20033;-71
2023/03/15 04:41:15;;;;;;;16.55;9.73;;;;;;;5.09;100.00;99628.94;5051523;28;20040;-75
2023/03/15 04:43:41;;;;;;;16.65;10.73;;;;;;;2.61;100.00;99599.69;5052913;28;20033;-71
2023/03/15 04:46:07;;;;;;;14.35;10.35;;;;;;;2.49;100.00;99636.53;5052401;28;20124;-73
2023/03/15 04:48:33;;;;;;;17.85;10.85;;;;;;;1.93;100.00;99570.53;5051454;28;20108;-72
2023/03/15 04:50:59;;;;;;;17.30;12.20;;;;;;;2.40;100.00;99659.94;5052608;28;20079;-73
2023/03/15 04:53:25;;;;;;;18.23;12.80;;;;;;;2.48;100.00;99635.69;5052052;28;20049;-70
2023/03/15 04:55:51;;;;;;;19.58;13.18;;;;;;;2.54;100.00;99629.81;5056637;28;20087;-73
2023/03/15 04:58:16;;;;;;;19.45;12.90;;;;;;;2.63;100.00;99608.03;5060496;28;20033;-73
2023/03/15 05:00:42;;;;;;;19.10;12.57;;;;;;;2.89;100.00;99632.25;5061765;28;20032;-74
2023/03/15 05:03:07;;;;;;;19.35;12.25;;;;;;;2.51;100.00;99644.88;5062567;28;20029;-73
2023/03/15 05:05:33;;;;;;;20.30;12.48;;;;;;;2.73;100.00;99651.53;5061506;28;20036;-72
2023/03/15 05:07:58;;;;;;;18.30;11.98;;;;;;;3.15;100.00;99650.59;5059820;28;20028;-74
2023/03/15 05:10:24;;;;;;;15.20;12.05;;;;;;;2.58;100.00;99554.56;5061335;28;20039;-72
2023/03/15 05:12:50;;;;;;;16.73;11.20;;;;;;;5.78;100.00;99607.03;5060439;28;20072;-71
2023/03/15 05:15:17;;;;;;;19.10;12.20;;;;;;;3.45;100.00;99641.22;5053288;28;20087;-74
2023/03/15 05:17:45;;;;;;;15.90;10.90;;;;;;;2.94;100.00;99653.97;5058351;28;20064;-72
2023/03/15 05:20:12;;;;;;;17.38;12.10;;;;;;;5.17;100.00;99618.75;5057826;28;20031;-73
2023/03/15 05:22:39;;;;;;;19.58;11.80;;;;;;;6.14;100.00;99603.94;5058200;28;20032;-71
2023/03/15 05:25:06;;;;;;;16.35;11.57;;;;;;;4.59;100.00;99611.03;5057596;28;20036;-70
2023/03/15 05:27:32;;;;;;;19.13;13.00;;;;;;;3.59;100.00;99613.50;5055985;28;20028;-72
2023/03/15 05:29:58;;;;;;;16.15;12.60;;;;;;;3.69;100.00;99647.78;5057082;28;20029;-71
2023/03/15 05:32:25;;;;;;;21.33;15.25;;;;;;;3.64;100.00;99656.22;5059940;28;20033;-72
2023/03/15 05:34:53;;;;;;;20.92;14.18;;;;;;;3.40;100.00;99604.41;5060366;28;20033;-73
2023/03/15 05:37:22;;;;;;;20.20;13.88;;;;;;;3.49;100.00;99591.78;5060033;28;20044;-74
2023/03/15 05:39:47;;;;;;;26.65;17.95;;;;;;;4.92;100.00;99550.22;5059763;28;20029;-73
2023/03/15 05:42:14;;;;;;;20.13;13.10;;;;;;;3.95;100.00;99595.66;5051186;28;20044;-75
2023/03/15 05:44:39;;;;;;;24.83;12.00;;;;;;;5.15;100.00;99539.88;5050794;28;20112;-71
2023/03/15 05:47:05;;;;;;;20.88;12.57;;;;;;;4.93;100.00;99569.50;5047043;28;20100;-71
2023/03/15 05:49:30;;;;;;;17.45;12.38;;;;;;;4.11;100.00;99581.28;5048135;28;20058;-74
2023/03/15 05:51:55;;;;;;;16.35;11.65;;;;;;;3.93;100.00;99584.78;5040694;28;20053;-69
2023/03/15 05:54:21;;;;;;;20.52;11.50;;;;;;;3.84;100.00;99559.75;5028536;28;20029;-72
2023/03/15 05:56:46;;;;;;;18.10;11.38;;;;;;;4.41;100.00;99616.25;5029936;28;20044;-71
2023/03/15 05:59:12;;;;;;;23.90;13.70;;;;;;;4.35;100.00;99560.94;5030735;28;20103;-72
2023/03/15 06:01:40;;;;;;;17.05;11.32;;;;;;;4.01;100.00;99579.69;5029888;28;20400;-71
2023/03/15 06:04:06;;;;;;;18.67;11.18;;;;;;;4.20;100.00;99607.19;5029514;28;20029;-71
2023/03/15 06:06:31;;;;;;;19.98;11.82;;;;;;;4.68;100.00;99565.63;5029791;28;20048;-71
2023/03/15 06:08:57;;;;;;;17.60;10.32;;;;;;;4.48;100.00;99601.94;5029432;28;20507;-71
2023/03/15 06:11:22;;;;;;;16.92;10.60;;;;;;;4.25;100.00;99617.22;5029401;28;20473;-71
2023/03/15 06:13:47;;;;;;;18.45;11.10;;;;;;;4.71;100.00;99573.16;5029580;28;20147;-71
2023/03/15 06:16:13;;;;;;;17.95;11.65;;;;;;;4.88;100.00;99596.44;5030396;28;20029;-71
2023/03/15 06:18:38;;;;;;;18.20;12.40;;;;;;;5.14;100.00;99608.72;5030294;28;20040;-71
2023/03/15 06:21:04;;;;;;;20.88;13.68;;;;;;;5.11;100.00;99543.28;5029722;28;20030;-71
2023/03/15 06:23:29;;;;;;;18.25;10.73;;;;;;;5.49;100.00;99598.19;5030492;28;20025;-71
2023/03/15 06:25:55;;;;;;;15.77;10.65;;;;;;;5.26;100.00;99553.16;5046303;28;20025;-71
2023/03/15 06:28:20;;;;;;;19.33;11.23;;;;;;;5.37;100.00;99610.97;5049317;28;20025;-71
2023/03/15 06:30:45;;;;;;;15.10;10.68;;;;;;;5.99;100.00;99618.50;5051080;28;20029;-71
2023/03/15 06:33:11;;;;;;;16.40;11.43;;;;;;;5.82;100.00;99630.50;5053551;28;20125;-71
2023/03/15 06:35:36;;;;;;;17.85;11.55;;;;;;;5.92;100.00;99624.50;5052436;28;20483;-71
2023/03/15 06:38:01;;;;;;;22.55;12.77;;;;;;;6.16;100.00;99601.38;5053479;28;20032;-71
2023/03/15 06:40:27;;;;;;;17.58;11.95;;;;;;;5.82;100.00;99633.81;5053446;28;20111;-70
2023/03/15 06:42:53;;;;;;;18.15;11.73;;;;;;;5.86;100.00;99596.84;5053971;28;20483;-72
2023/03/15 06:45:19;;;;;;;21.17;11.93;;;;;;;6.21;100.00;99607.19;5053843;28;20037;-70
2023/03/15 06:47:44;;;;;;;19.42;12.07;;;;;;;6.44;100.00;99653.06;5054853;28;20021;-71
2023/03/15 06:50:10;;;;;;;16.83;11.35;;;;;;;5.12;100.00;99560.88;5054334;28;20037;-71
2023/03/15 06:52:37;;;;;;;17.85;11.65;;;;;;;6.04;100.00;99657.09;5034540;28;20057;-71
2023/03/15 06:55:03;;;;;;;16.42;11.75;;;;;;;5.98;100.00;99650.44;5034892;28;20029;-71
2023/03/15 06:57:28;;;;;;;21.40;11.75;;;;;;;5.87;100.00;99654.81;5033002;28;20400;-71
2023/03/15 06:59:54;;;;;;;25.35;13.68;;;;;;;5.77;100.00;99605.34;5032944;28;20061;-71
2023/03/15 07:02:19;;;;;;;21.08;13.73;;;;;;;6.19;100.00;99616.50;5033956;28;20333;-71
2023/03/15 07:04:46;;;;;;;21.52;13.25;;;;;;;5.93;100.00;99613.53;5034899;28;20087;-71
2023/03/15 07:07:13;;;;;;;21.35;14.15;;;;;;;6.14;100.00;99656.94;5033398;28;20029;-71
2023/03/15 07:09:39;;;;;;;20.27;13.98;;;;;;;5.64;100.00;99606.38;5033333;28;20539;-71
2023/03/15 07:12:06;;;;;;;23.77;15.55;;;;;;;6.09;100.00;99661.22;5034684;28;20026;-71
2023/03/15 07:14:33;;;;;;;23.63;14.50;;;;;;;5.92;100.00;99619.44;5034637;28;20029;-71
2023/03/15 07:16:59;;;;;;;23.33;15.45;;;;;;;5.52;100.00;99610.75;5033104;28;20129;-70
2023/03/15 07:19:24;;;;;;;29.17;17.70;;;;;;;5.85;100.00;99648.97;5032968;28;20112;-71
2023/03/15 07:21:50;;;;;;;25.35;15.80;;;;;;;6.25;100.00;99615.56;5032344;28;20033;-71
2023/03/15 07:24:16;;;;;;;25.10;16.95;;;;;;;6.11;100.00;99634.28;5034121;28;20548;-71
2023/03/15 07:26:41;;;;;;;30.15;18.90;;;;;;;6.22;100.00;99608.84;5033868;28;20034;-71
2023/03/15 07:29:07;;;;;;;31.35;19.13;;;;;;;6.34;100.00;99636.41;5032223;28;20036;-72
2023/03/15 07:31:32;;;;;;;30.15;19.48;;;;;;;6.71;100.00;99584.44;5033531;28;20034;-71
2023/03/15 07:33:57;;;;;;;32.53;20.85;;;;;;;6.60;100.00;99577.88;5032354;28;20030;-71
2023/03/15 07:36:23;;;;;;;35.22;21.10;;;;;;;6.31;100.00;99578.44;5032054;28;20116;-72
2023/03/15 07:38:48;;;;;;;32.45;20.63;;;;;;;6.90;100.00;99605.09;5032221;28;20499;-71
2023/03/15 07:41:13;;;;;;;33.72;19.05;;;;;;;6.89;100.00;99604.25;5033410;28;20033;-71
2023/03/15 07:43:39;;;;;;;30.83;20.60;;;;;;;6.71;100.00;99549.06;5033509;28;20045;-70
2023/03/15 07:46:06;;;;;;;26.30;18.10;;;;;;;6.38;100.00;99554.72;5033717;28;20025;-71
2023/03/15 07:48:31;;;;;;;33.60;21.73;;;;;;;6.68;100.00;99559.22;5031793;28;20484;-71
2023/03/15 07:50:57;;;;;;;30.90;20.20;;;;;;;6.89;100.00;99591.63;5033150;28;20034;-72
2023/03/15 07:53:22;;;;;;;32.10;20.50;;;;;;;7.09;100.00;99583.66;5032245;28;20053;-71
2023/03/15 07:55:48;;;;;;;30.58;21.38;;;;;;;7.50;100.00;99585.31;5033296;28;20120;-72
2023/03/15 07:58:14;;;;;;;33.35;19.77;;;;;;;7.19;100.00;99541.34;5033340;28;20030;-70
2023/03/15 08:00:40;;;;;;;26.60;17.90;;;;;;;7.15;100.00;99532.16;5033549;28;20572;-71
2023/03/15 08:03:06;;;;;;;26.52;18.35;;;;;;;7.54;100.00;99562.47;5032959;28;20120;-71
2023/03/15 08:05:32;;;;;;;23.52;17.55;;;;;;;7.48;100.00;99570.19;5033129;28;20033;-71
2023/03/15 08:07:58;;;;;;;27.17;18.08;;;;;;;7.53;100.00;99510.22;5031798;28;20052;-71
2023/03/15 08:10:24;;;;;;;27.80;18.00;;;;;;;7.48;100.00;99532.25;5032907;28;20041;-71
2023/03/15 08:12:49;;;;;;;29.25;18.92;;;;;;;7.54;100.00;99541.41;5033145;28;20392;-72
2023/03/15 08:15:15;;;;;;;27.40;19.05;;;;;;;8.02;100.00;99520.00;5031921;28;20494;-72
2023/03/15 08:17:41;;;;;;;29.92;17.70;;;;;;;7.69;100.00;99529.22;5033005;28;20125;-73
2023/03/15 08:20:10;;;;;;;25.73;18.42;;;;;;;8.26;100.00;99564.94;5033228;28;20124;-72
2023/03/15 08:22:37;;;;;;;26.55;18.17;;;;;;;8.57;100.00;99559.94;5031698;28;20094;-71
2023/03/15 08:25:03;;;;;;;37.67;23.27;;;;;;;8.39;100.00;99545.22;5031286;28;20496;-70
2023/03/15 08:27:29;;;;;;;32.35;20.70;;;;;;;8.40;100.00;99557.00;5031862;28;20415;-71
2023/03/15 08:29:54;;;;;;;25.17;18.75;;;;;;;8.42;100.00;99567.91;5032591;28;20044;-71
2023/03/15 08:32:20;;;;;;;26.05;19.50;;;;;;;8.27;100.00;99579.28;5032539;28;20033;-71
2023/03/15 08:34:46;;;;;;;27.33;19.27;;;;;;;8.90;100.00;99550.56;5032377;28;20080;-71
2023/03/15 08:37:11;;;;;;;29.67;19.52;;;;;;;8.50;100.00;99564.31;5032501;28;20025;-72
2023/03/15 08:39:37;;;;;;;28.83;18.60;;;;;;;7.90;100.00;99528.69;5030979;28;20041;-71
2023/03/15 08:42:03;;;;;;;27.00;19.65;;;;;;;8.33;100.00;99560.56;5032211;28;20180;-72
2023/03/15 08:44:29;;;;;;;35.05;22.58;;;;;;;9.01;100.00;99475.88;5032389;28;20124;-72
2023/03/15 08:46:55;;;;;;;29.92;19.25;;;;;;;8.79;100.00;99566.09;5033077;28;20033;-73
2023/03/15 08:49:20;;;;;;;25.67;18.88;;;;;;;8.59;100.00;99528.63;5031508;28;20496;-72
2023/03/15 08:51:45;;;;;;;27.98;17.80;;;;;;;8.92;100.00;99515.88;5031690;28;20136;-72
2023/03/15 08:54:13;;;;;;;25.70;18.65;;;;;;;9.33;100.00;99530.72;5030107;28;20040;-71
2023/03/15 08:56:38;;;;;;;43.38;28.80;;;;;;;10.43;100.00;99525.41;5032254;28;20029;-71
2023/03/15 08:59:04;;;;;;;29.30;17.85;;;;;;;10.00;100.00;99577.66;5031779;28;20040;-71
2023/03/15 09:01:29;;;;;;;29.35;17.52;;;;;;;10.09;100.00;99537.56;5031560;28;20123;-71
2023/03/15 09:03:55;;;;;;;27.20;17.95;;;;;;;10.42;100.00;99526.28;5032226;28;20444;-72
2023/03/15 09:06:20;;;;;;;23.73;17.05;;;;;;;9.73;100.00;99546.34;5032300;28;20030;-73
2023/03/15 09:08:46;;;;;;;23.08;15.73;;;;;;;9.86;100.00;99546.78;5032223;28;20120;-73
2023/03/15 09:11:12;;;;;;;20.67;16.13;;;;;;;10.33;100.00;99567.25;5032321;28;20037;-73
2023/03/15 09:13:37;;;;;;;22.85;16.95;;;;;;;10.88;100.00;99561.06;5032435;28;20030;-73
2023/03/15 09:16:03;;;;;;;23.60;17.00;;;;;;;10.31;100.00;99518.19;5032319;28;20056;-74
2023/03/15 09:18:29;;;;;;;30.00;19.05;;;;;;;11.15;100.00;99521.09;5032384;28;20037;-73
2023/03/15 09:20:55;;;;;;;26.75;18.77;;;;;;;10.95;100.00;99521.81;5031051;28;20099;-73
2023/03/15 09:23:20;;;;;;;24.35;14.80;;;;;;;11.34;100.00;99562.75;5030042;28;20462;-73
2023/03/15 09:25:46;;;;;;;18.42;13.43;;;;;;;10.80;100.00;99541.88;5030821;28;20029;-73
2023/03/15 09:28:11;;;;;;;17.92;13.60;;;;;;;10.64;100.00;99576.34;5032039;28;20022;-72
2023/03/15 09:30:39;;;;;;;21.25;13.23;;;;;;;11.20;100.00;99526.81;5030220;28;20030;-73
2023/03/15 09:33:04;;;;;;;28.92;18.88;;;;;;;11.29;100.00;99545.09;5030736;28;20026;-72
2023/03/15 09:35:30;;;;;;;21.45;15.23;;;;;;;10.75;100.00;99482.75;5031797;28;20029;-74
2023/03/15 09:37:56;;;;;;;21.55;15.10;;;;;;;11.56;100.00;99557.66;5032113;28;20034;-73
2023/03/15 09:40:44;;;;;;;32.00;18.42;;;;;;;11.42;100.00;99560.75;5030147;28;20044;-74
2023/03/15 09:43:31;;;;;;;19.33;14.43;;;;;;;11.21;100.00;99577.63;5031596;28;20061;-73
2023/03/15 09:45:59;;;;;;;23.40;14.50;;;;;;;11.15;100.00;99559.25;5032028;28;20029;-73
2023/03/15 09:48:42;;;;;;;21.33;14.60;;;;;;;11.57;100.00;99555.06;5030378;28;20595;-73
2023/03/15 09:51:37;;;;;;;20.20;13.85;;;;;;;11.76;100.00;99556.03;5031305;28;20129;-73
2023/03/15 09:54:11;;;;;;;21.77;13.63;;;;;;;11.77;100.00;99552.59;5028494;28;20038;-74
2023/03/15 09:56:47;;;;;;;25.35;16.67;;;;;;;11.42;100.00;99499.66;5031854;28;20036;-73
2023/03/15 09:59:16;;;;;;;44.42;24.85;;;;;;;11.71;100.00;99503.63;5031954;28;20033;-73
2023/03/15 10:01:42;;;;;;;19.30;12.88;;;;;;;12.51;100.00;99548.66;5030432;28;20029;-74
2023/03/15 10:04:28;;;;;;;20.67;13.27;;;;;;;11.76;100.00;99543.31;5031401;28;20835;-73
2023/03/15 10:06:56;;;;;;;18.95;13.18;;;;;;;12.51;100.00;99533.38;5030539;28;20517;-74
2023/03/15 10:09:26;;;;;;;20.55;15.13;;;;;;;12.56;100.00;99495.75;5030004;28;20060;-74
2023/03/15 10:12:24;;;;;;;20.40;14.02;;;;;;;12.03;100.00;99542.19;5031228;28;20026;-71
2023/03/15 10:15:27;;;;;;;23.95;14.05;;;;;;;11.25;100.00;99535.13;5018615;28;20073;-73
2023/03/15 10:18:20;;;;;;;19.92;13.52;;;;;;;11.77;100.00;99524.56;4390962;27;10000828;-72
2023/03/15 10:20:56;;;;;;;20.67;14.60;;;;;;;11.34;100.00;99499.13;5090533;28;20035;-72
2023/03/15 10:23:35;;;;;;;21.08;13.45;;;;;;;11.49;100.00;99520.63;5092114;28;20197;-72
2023/03/15 10:26:04;;;;;;;18.48;13.45;;;;;;;12.50;100.00;99530.00;5090983;28;20031;-72
2023/03/15 10:28:32;;;;;;;21.65;14.18;;;;;;;11.77;100.00;99536.47;5109530;28;20155;-72
2023/03/15 10:31:12;;;;;;;19.58;13.80;;;;;;;12.12;100.00;99498.47;5109092;28;20055;-72
2023/03/15 10:33:38;;;;;;;18.80;13.45;;;;;;;11.68;100.00;99463.84;5092470;28;20032;-72
2023/03/15 10:36:21;;;;;;;19.63;14.00;;;;;;;11.96;100.00;99489.00;5100650;28;20032;-71
2023/03/15 10:38:49;;;;;;;20.85;14.07;;;;;;;12.66;100.00;99513.13;5071896;28;20055;-72
2023/03/15 10:41:47;;;;;;;19.48;13.57;;;;;;;12.96;100.00;99501.56;5095664;28;20034;-71
2023/03/15 10:44:15;;;;;;;20.98;13.98;;;;;;;12.55;100.00;99499.19;5027372;28;20037;-71
2023/03/15 10:46:40;;;;;;;22.88;14.60;;;;;;;12.51;100.00;99513.81;5030146;28;20036;-74
2023/03/15 10:49:13;;;;;;;23.00;15.55;;;;;;;12.86;100.00;99479.09;5054095;28;20420;-72
2023/03/15 10:51:47;;;;;;;18.67;13.77;;;;;;;12.23;100.00;99523.53;5029704;28;20049;-72
2023/03/15 10:54:15;;;;;;;21.05;13.73;;;;;;;11.91;100.00;99518.91;5029706;28;20037;-73
2023/03/15 10:56:49;;;;;;;20.92;14.73;;;;;;;11.63;100.00;99498.81;5030918;28;20121;-73
2023/03/15 10:59:24;;;;;;;22.60;14.23;;;;;;;12.15;100.00;99500.91;5031265;28;20036;-73
2023/03/15 11:02:10;;;;;;;19.30;14.30;;;;;;;12.14;100.00;99489.06;5031753;28;20037;-74
2023/03/15 11:04:40;;;;;;;23.55;14.82;;;;;;;12.04;100.00;99439.38;5030020;28;20460;-73
2023/03/15 11:07:06;;;;;;;23.27;14.70;;;;;;;11.99;100.00;99496.50;5031164;28;20388;-73
2023/03/15 11:09:52;;;;;;;18.63;14.48;;;;;;;11.72;100.00;99444.19;5031254;28;20025;-72
2023/03/15 11:12:25;;;;;;;21.30;14.10;;;;;;;12.02;100.00;99486.22;5030859;28;20034;-72
2023/03/15 11:15:19;;;;;;;19.00;14.68;;;;;;;12.27;100.00;99481.72;5031076;28;20116;-72
2023/03/15 11:17:48;;;;;;;19.52;13.38;;;;;;;12.50;100.00;99434.84;5031679;28;20080;-72
2023/03/15 11:20:34;;;;;;;18.55;13.85;;;;;;;13.37;100.00;99471.59;5034531;28;20045;-73
2023/03/15 11:23:12;;;;;;;22.65;14.85;;;;;;;13.37;100.00;99432.50;5034631;28;20037;-73
2023/03/15 11:25:38;;;;;;;19.35;13.52;;;;;;;14.06;100.00;99423.06;5034882;28;20037;-73